sensor_id;sensor_type;location;lat;lon;timestamp;pressure;altitude;pressure_sealevel;temperature;humidity
66681;BME280;53575;51.366;12.350;2023-02-17T00:01:17;100803.41;;;6.91;98.85
66681;BME280;53575;51.366;12.350;2023-02-17T00:03:44;100791.97;;;6.82;100.00
66681;BME280;53575;51.366;12.350;2023-02-17T00:06:13;100786.09;;;6.91;99.67
66681;BME280;53575;51.366;12.350;2023-02-17T00:08:39;100797.41;;;6.95;99.91
66681;BME280;53575;51.366;12.350;2023-02-17T00:11:05;100787.75;;;6.89;100.00
66681;BME280;53575;51.366;12.350;2023-02-17T00:13:31;100787.75;;;6.88;100.00
66681;BME280;53575;51.366;12.350;2023-02-17T00:15:56;100785.91;;;6.80;100.00
66681;BME280;53575;51.366;12.350;2023-02-17T00:18:22;100786.09;;;6.93;100.00
66681;BME280;53575;51.366;12.350;2023-02-17T00:20:48;100786.16;;;6.97;100.00
66681;BME280;53575;51.366;12.350;2023-02-17T00:23:14;100778.38;;;6.97;100.00
66681;BME280;53575;51.366;12.350;2023-02-17T00:25:39;100771.31;;;6.89;100.00
66681;BME280;53575;51.366;12.350;2023-02-17T00:28:05;100767.91;;;6.93;100.00
66681;BME280;53575;51.366;12.350;2023-02-17T00:30:31;100753.94;;;6.84;100.00
66681;BME280;53575;51.366;12.350;2023-02-17T00:32:58;100752.22;;;6.87;100.00
66681;BME280;53575;51.366;12.350;2023-02-17T00:35:23;100747.00;;;6.87;100.00
66681;BME280;53575;51.366;12.350;2023-02-17T00:37:49;100738.34;;;6.84;100.00
66681;BME280;53575;51.366;12.350;2023-02-17T00:40:14;100740.06;;;6.84;100.00
66681;BME280;53575;51.366;12.350;2023-02-17T00:42:40;100729.63;;;6.79;100.00
66681;BME280;53575;51.366;12.350;2023-02-17T00:45:06;100737.47;;;6.84;100.00
66681;BME280;53575;51.366;12.350;2023-02-17T00:47:32;100722.69;;;6.80;100.00
66681;BME280;53575;51.366;12.350;2023-02-17T00:49:57;100721.75;;;6.76;100.00
66681;BME280;53575;51.366;12.350;2023-02-17T00:52:23;100727.94;;;6.83;100.00
66681;BME280;53575;51.366;12.350;2023-02-17T00:54:48;100726.22;;;6.83;100.00
66681;BME280;53575;51.366;12.350;2023-02-17T00:57:13;100732.31;;;6.87;100.00
66681;BME280;53575;51.366;12.350;2023-02-17T00:59:39;100722.06;;;6.96;100.00
66681;BME280;53575;51.366;12.350;2023-02-17T01:02:04;100726.41;;;6.97;100.00
66681;BME280;53575;51.366;12.350;2023-02-17T01:04:30;100703.88;;;6.96;100.00
66681;BME280;53575;51.366;12.350;2023-02-17T01:06:55;100707.34;;;6.95;100.00
66681;BME280;53575;51.366;12.350;2023-02-17T01:09:21;100713.44;;;6.99;100.00
66681;BME280;53575;51.366;12.350;2023-02-17T01:11:46;100721.25;;;7.02;99.72
66681;BME280;53575;51.366;12.350;2023-02-17T01:14:12;100723.97;;;7.06;100.00
66681;BME280;53575;51.366;12.350;2023-02-17T01:16:40;100722.28;;;7.13;99.58
66681;BME280;53575;51.366;12.350;2023-02-17T01:19:12;100723.97;;;7.08;99.44
66681;BME280;53575;51.366;12.350;2023-02-17T01:21:38;100714.53;;;7.15;99.21
66681;BME280;53575;51.366;12.350;2023-02-17T01:24:05;100713.81;;;7.25;98.74
66681;BME280;53575;51.366;12.350;2023-02-17T01:26:33;100711.25;;;7.28;97.79
66681;BME280;53575;51.366;12.350;2023-02-17T01:28:58;100707.72;;;7.23;97.89
66681;BME280;53575;51.366;12.350;2023-02-17T01:31:25;100713.06;;;7.33;97.26
66681;BME280;53575;51.366;12.350;2023-02-17T01:33:54;100714.00;;;7.40;95.98
66681;BME280;53575;51.366;12.350;2023-02-17T01:36:20;100705.44;;;7.47;95.81
66681;BME280;53575;51.366;12.350;2023-02-17T01:38:46;100707.22;;;7.51;95.01
66681;BME280;53575;51.366;12.350;2023-02-17T01:41:13;100707.31;;;7.57;93.98
66681;BME280;53575;51.366;12.350;2023-02-17T01:43:39;100700.38;;;7.56;93.76
66681;BME280;53575;51.366;12.350;2023-02-17T01:46:06;100696.03;;;7.58;93.48
66681;BME280;53575;51.366;12.350;2023-02-17T01:48:38;100693.56;;;7.68;92.44
66681;BME280;53575;51.366;12.350;2023-02-17T01:51:16;100693.56;;;7.68;92.46
66681;BME280;53575;51.366;12.350;2023-02-17T01:54:16;100683.22;;;7.72;92.16
66681;BME280;53575;51.366;12.350;2023-02-17T01:56:45;100675.47;;;7.78;91.60
66681;BME280;53575;51.366;12.350;2023-02-17T01:59:20;100676.41;;;7.85;91.57
66681;BME280;53575;51.366;12.350;2023-02-17T02:01:49;100678.13;;;7.85;91.57
66681;BME280;53575;51.366;12.350;2023-02-17T02:04:19;100666.03;;;7.87;91.17
66681;BME280;53575;51.366;12.350;2023-02-17T02:06:46;100663.38;;;7.84;91.37
66681;BME280;53575;51.366;12.350;2023-02-17T02:09:21;100662.56;;;7.86;91.24
66681;BME280;53575;51.366;12.350;2023-02-17T02:11:49;100659.97;;;7.88;90.35
66681;BME280;53575;51.366;12.350;2023-02-17T02:14:17;100651.25;;;7.86;90.62
66681;BME280;53575;51.366;12.350;2023-02-17T02:22:59;100642.69;;;7.94;90.36
66681;BME280;53575;51.366;12.350;2023-02-17T02:28:47;100631.38;;;7.92;91.06
66681;BME280;53575;51.366;12.350;2023-02-17T02:31:48;100632.25;;;7.93;91.66
66681;BME280;53575;51.366;12.350;2023-02-17T02:34:28;100632.25;;;7.93;91.81
66681;BME280;53575;51.366;12.350;2023-02-17T02:37:11;100631.38;;;7.91;92.06
66681;BME280;53575;51.366;12.350;2023-02-17T02:39:41;100625.22;;;7.86;92.96
66681;BME280;53575;51.366;12.350;2023-02-17T02:42:11;100628.78;;;7.92;93.19
66681;BME280;53575;51.366;12.350;2023-02-17T02:44:38;100618.41;;;7.94;93.04
66681;BME280;53575;51.366;12.350;2023-02-17T02:47:06;100621.84;;;7.93;93.46
66681;BME280;53575;51.366;12.350;2023-02-17T02:49:50;100614.03;;;7.91;94.34
66681;BME280;53575;51.366;12.350;2023-02-17T02:52:26;100614.91;;;7.90;95.48
66681;BME280;53575;51.366;12.350;2023-02-17T02:55:07;100607.09;;;7.90;96.57
66681;BME280;53575;51.366;12.350;2023-02-17T02:58:00;100602.69;;;7.83;97.59
66681;BME280;53575;51.366;12.350;2023-02-17T03:00:48;100605.28;;;7.83;98.12
66681;BME280;53575;51.366;12.350;2023-02-17T03:06:05;100606.97;;;7.81;97.77
66681;BME280;53575;51.366;12.350;2023-02-17T03:08:37;100600.03;;;7.78;97.73
66681;BME280;53575;51.366;12.350;2023-02-17T03:11:03;100605.28;;;7.85;97.47
66681;BME280;53575;51.366;12.350;2023-02-17T03:13:32;100606.19;;;7.88;97.20
66681;BME280;53575;51.366;12.350;2023-02-17T03:15:57;100598.44;;;7.97;96.78
66681;BME280;53575;51.366;12.350;2023-02-17T03:18:23;100602.75;;;7.92;96.96
66681;BME280;53575;51.366;12.350;2023-02-17T03:20:52;100596.72;;;7.96;96.69
66681;BME280;53575;51.366;12.350;2023-02-17T03:23:19;100586.34;;;7.98;96.94
66681;BME280;53575;51.366;12.350;2023-02-17T03:25:44;100590.69;;;7.99;96.95
66681;BME280;53575;51.366;12.350;2023-02-17T03:28:12;100589.00;;;8.05;96.86
66681;BME280;53575;51.366;12.350;2023-02-17T03:30:37;100594.25;;;8.12;96.83
66681;BME280;53575;51.366;12.350;2023-02-17T03:33:03;100585.50;;;8.05;96.66
66681;BME280;53575;51.366;12.350;2023-02-17T03:35:29;100587.28;;;8.06;97.10
66681;BME280;53575;51.366;12.350;2023-02-17T03:37:54;100587.31;;;8.09;96.76
66681;BME280;53575;51.366;12.350;2023-02-17T03:40:20;100583.81;;;8.07;97.04
66681;BME280;53575;51.366;12.350;2023-02-17T03:42:45;100583.88;;;8.13;96.43
66681;BME280;53575;51.366;12.350;2023-02-17T03:45:10;100590.81;;;8.16;96.39
66681;BME280;53575;51.366;12.350;2023-02-17T03:47:36;100587.34;;;8.14;96.45
66681;BME280;53575;51.366;12.350;2023-02-17T03:50:01;100580.31;;;8.05;96.71
66681;BME280;53575;51.366;12.350;2023-02-17T03:52:26;100570.81;;;8.12;96.00
66681;BME280;53575;51.366;12.350;2023-02-17T03:54:52;100573.44;;;8.16;95.89
66681;BME280;53575;51.366;12.350;2023-02-17T03:57:17;100559.53;;;8.13;95.93
66681;BME280;53575;51.366;12.350;2023-02-17T03:59:43;100563.91;;;8.15;95.96
66681;BME280;53575;51.366;12.350;2023-02-17T04:02:08;100561.31;;;8.15;96.10
66681;BME280;53575;51.366;12.350;2023-02-17T04:04:34;100571.75;;;8.18;95.95
66681;BME280;53575;51.366;12.350;2023-02-17T04:07:00;100562.19;;;8.20;96.02
66681;BME280;53575;51.366;12.350;2023-02-17T04:09:26;100576.94;;;8.18;96.39
66681;BME280;53575;51.366;12.350;2023-02-17T04:11:51;100567.41;;;8.17;96.68
66681;BME280;53575;51.366;12.350;2023-02-17T04:14:16;100563.94;;;8.18;96.75
66681;BME280;53575;51.366;12.350;2023-02-17T04:16:42;100566.53;;;8.18;96.81
66681;BME280;53575;51.366;12.350;2023-02-17T04:19:07;100557.00;;;8.20;96.80
66681;BME280;53575;51.366;12.350;2023-02-17T04:21:33;100559.66;;;8.26;97.05
66681;BME280;53575;51.366;12.350;2023-02-17T04:24:00;100557.03;;;8.23;97.29
66681;BME280;53575;51.366;12.350;2023-02-17T04:26:26;100548.31;;;8.20;97.47
66681;BME280;53575;51.366;12.350;2023-02-17T04:28:51;100550.97;;;8.24;97.57
66681;BME280;53575;51.366;12.350;2023-02-17T04:31:17;100548.38;;;8.24;97.56
66681;BME280;53575;51.366;12.350;2023-02-17T04:33:42;100555.31;;;8.27;97.75
66681;BME280;53575;51.366;12.350;2023-02-17T04:36:08;100549.28;;;8.29;97.78
66681;BME280;53575;51.366;12.350;2023-02-17T04:38:33;100549.28;;;8.29;97.86
66681;BME280;53575;51.366;12.350;2023-02-17T04:40:59;100538.84;;;8.29;97.87
66681;BME280;53575;51.366;12.350;2023-02-17T04:43:26;100546.66;;;8.28;97.86
66681;BME280;53575;51.366;12.350;2023-02-17T04:45:52;100548.44;;;8.34;97.77
66681;BME280;53575;51.366;12.350;2023-02-17T04:48:18;100545.78;;;8.29;98.28
66681;BME280;53575;51.366;12.350;2023-02-17T04:50:43;100549.25;;;8.26;98.38
66681;BME280;53575;51.366;12.350;2023-02-17T04:53:09;100533.63;;;8.25;98.65
66681;BME280;53575;51.366;12.350;2023-02-17T04:55:34;100531.91;;;8.31;98.50
66681;BME280;53575;51.366;12.350;2023-02-17T04:58:00;100530.22;;;8.37;98.17
66681;BME280;53575;51.366;12.350;2023-02-17T05:00:25;100531.91;;;8.30;98.14
66681;BME280;53575;51.366;12.350;2023-02-17T05:02:51;100523.22;;;8.31;98.41
66681;BME280;53575;51.366;12.350;2023-02-17T05:05:17;100530.16;;;8.30;98.06
66681;BME280;53575;51.366;12.350;2023-02-17T05:07:44;100529.34;;;8.33;98.16
66681;BME280;53575;51.366;12.350;2023-02-17T05:10:11;100529.34;;;8.36;97.96
66681;BME280;53575;51.366;12.350;2023-02-17T05:12:37;100522.38;;;8.35;97.96
66681;BME280;53575;51.366;12.350;2023-02-17T05:15:03;100525.06;;;8.40;97.84
66681;BME280;53575;51.366;12.350;2023-02-17T05:17:28;100524.19;;;8.39;97.37
66681;BME280;53575;51.366;12.350;2023-02-17T05:19:54;100513.75;;;8.38;97.57
66681;BME280;53575;51.366;12.350;2023-02-17T05:22:19;100516.41;;;8.47;97.28
66681;BME280;53575;51.366;12.350;2023-02-17T05:24:45;100507.72;;;8.45;96.82
66681;BME280;53575;51.366;12.350;2023-02-17T05:27:10;100506.03;;;8.48;96.78
66681;BME280;53575;51.366;12.350;2023-02-17T05:29:35;100499.09;;;8.53;96.33
66681;BME280;53575;51.366;12.350;2023-02-17T05:32:01;100491.25;;;8.49;96.72
66681;BME280;53575;51.366;12.350;2023-02-17T05:34:26;100490.38;;;8.50;96.88
66681;BME280;53575;51.366;12.350;2023-02-17T05:36:51;100493.00;;;8.53;96.41
66681;BME280;53575;51.366;12.350;2023-02-17T05:39:17;100492.16;;;8.52;96.45
66681;BME280;53575;51.366;12.350;2023-02-17T05:41:42;100491.31;;;8.55;95.97
66681;BME280;53575;51.366;12.350;2023-02-17T05:44:08;100497.41;;;8.60;95.78
66681;BME280;53575;51.366;12.350;2023-02-17T05:46:33;100494.78;;;8.56;96.06
66681;BME280;53575;51.366;12.350;2023-02-17T05:48:59;100499.97;;;8.57;96.11
66681;BME280;53575;51.366;12.350;2023-02-17T05:51:24;100507.78;;;8.54;96.58
66681;BME280;53575;51.366;12.350;2023-02-17T05:53:50;100508.63;;;8.54;96.60
66681;BME280;53575;51.366;12.350;2023-02-17T05:56:15;100521.69;;;8.62;96.39
66681;BME280;53575;51.366;12.350;2023-02-17T05:58:40;100522.59;;;8.64;96.06
66681;BME280;53575;51.366;12.350;2023-02-17T06:01:08;100520.00;;;8.67;96.20
66681;BME280;53575;51.366;12.350;2023-02-17T06:03:33;100516.50;;;8.65;96.61
66681;BME280;53575;51.366;12.350;2023-02-17T06:05:59;100506.13;;;8.71;96.71
66681;BME280;53575;51.366;12.350;2023-02-17T06:08:24;100504.38;;;8.67;96.88
66681;BME280;53575;51.366;12.350;2023-02-17T06:10:51;100507.91;;;8.74;96.79
66681;BME280;53575;51.366;12.350;2023-02-17T06:13:17;100499.19;;;8.70;97.42
66681;BME280;53575;51.366;12.350;2023-02-17T06:15:42;100503.53;;;8.76;97.51
66681;BME280;53575;51.366;12.350;2023-02-17T06:18:08;100512.25;;;8.78;97.49
66681;BME280;53575;51.366;12.350;2023-02-17T06:20:33;100501.84;;;8.89;97.12
66681;BME280;53575;51.366;12.350;2023-02-17T06:22:58;100509.69;;;8.86;97.20
66681;BME280;53575;51.366;12.350;2023-02-17T06:25:24;100514.00;;;8.93;96.93
66681;BME280;53575;51.366;12.350;2023-02-17T06:27:49;100497.53;;;8.95;96.78
66681;BME280;53575;51.366;12.350;2023-02-17T06:30:15;100494.06;;;8.90;97.08
66681;BME280;53575;51.366;12.350;2023-02-17T06:32:42;100493.19;;;8.94;96.95
66681;BME280;53575;51.366;12.350;2023-02-17T06:35:07;100496.66;;;8.96;96.88
66681;BME280;53575;51.366;12.350;2023-02-17T06:37:33;100480.16;;;8.94;97.14
66681;BME280;53575;51.366;12.350;2023-02-17T06:39:58;100483.66;;;8.93;97.27
66681;BME280;53575;51.366;12.350;2023-02-17T06:42:24;100487.13;;;8.97;97.09
66681;BME280;53575;51.366;12.350;2023-02-17T06:44:49;100476.69;;;8.95;97.26
66681;BME280;53575;51.366;12.350;2023-02-17T06:47:15;100475.81;;;8.96;97.04
66681;BME280;53575;51.366;12.350;2023-02-17T06:49:40;100461.91;;;8.99;97.24
66681;BME280;53575;51.366;12.350;2023-02-17T06:52:06;100458.44;;;9.00;97.23
66681;BME280;53575;51.366;12.350;2023-02-17T06:54:31;100461.91;;;8.99;97.29
66681;BME280;53575;51.366;12.350;2023-02-17T06:56:57;100458.47;;;9.01;97.26
66681;BME280;53575;51.366;12.350;2023-02-17T06:59:22;100455.84;;;9.01;97.10
66681;BME280;53575;51.366;12.350;2023-02-17T07:01:48;100455.88;;;9.06;97.23
66681;BME280;53575;51.366;12.350;2023-02-17T07:04:15;100456.72;;;9.07;97.23
66681;BME280;53575;51.366;12.350;2023-02-17T07:06:40;100457.59;;;9.12;97.23
66681;BME280;53575;51.366;12.350;2023-02-17T07:09:06;100452.41;;;9.13;97.44
66681;BME280;53575;51.366;12.350;2023-02-17T07:11:32;100452.41;;;9.10;97.50
66681;BME280;53575;51.366;12.350;2023-02-17T07:13:58;100450.66;;;9.15;97.47
66681;BME280;53575;51.366;12.350;2023-02-17T07:16:24;100461.09;;;9.17;97.50
66681;BME280;53575;51.366;12.350;2023-02-17T07:18:50;100451.53;;;9.19;97.58
66681;BME280;53575;51.366;12.350;2023-02-17T07:21:16;100458.50;;;9.24;97.00
66681;BME280;53575;51.366;12.350;2023-02-17T07:23:41;100445.47;;;9.24;97.22
66681;BME280;53575;51.366;12.350;2023-02-17T07:26:09;100455.91;;;9.26;97.39
66681;BME280;53575;51.366;12.350;2023-02-17T07:28:36;100461.09;;;9.31;97.18
66681;BME280;53575;51.366;12.350;2023-02-17T07:31:06;100449.81;;;9.27;97.17
66681;BME280;53575;51.366;12.350;2023-02-17T07:33:33;100457.66;;;9.32;96.94
66681;BME280;53575;51.366;12.350;2023-02-17T07:35:59;100451.59;;;9.39;96.86
66681;BME280;53575;51.366;12.350;2023-02-17T07:38:25;100462.00;;;9.39;96.62
66681;BME280;53575;51.366;12.350;2023-02-17T07:40:51;100451.59;;;9.39;96.33
66681;BME280;53575;51.366;12.350;2023-02-17T07:43:17;100461.13;;;9.40;96.26
66681;BME280;53575;51.366;12.350;2023-02-17T07:45:42;100468.09;;;9.41;96.29
66681;BME280;53575;51.366;12.350;2023-02-17T07:48:08;100468.94;;;9.38;96.22
66681;BME280;53575;51.366;12.350;2023-02-17T07:50:34;100475.06;;;9.39;96.07
66681;BME280;53575;51.366;12.350;2023-02-17T07:52:59;100480.25;;;9.40;96.16
66681;BME280;53575;51.366;12.350;2023-02-17T07:55:25;100472.44;;;9.43;95.91
66681;BME280;53575;51.366;12.350;2023-02-17T07:57:50;100473.31;;;9.47;95.39
66681;BME280;53575;51.366;12.350;2023-02-17T08:00:16;100470.69;;;9.50;95.46
66681;BME280;53575;51.366;12.350;2023-02-17T08:02:42;100453.31;;;9.57;95.10
66681;BME280;53575;51.366;12.350;2023-02-17T08:05:07;100450.72;;;9.58;94.72
66681;BME280;53575;51.366;12.350;2023-02-17T08:07:33;100442.03;;;9.62;94.53
66681;BME280;53575;51.366;12.350;2023-02-17T08:09:59;100448.97;;;9.71;94.03
66681;BME280;53575;51.366;12.350;2023-02-17T08:12:43;100432.41;;;9.76;93.42
66681;BME280;53575;51.366;12.350;2023-02-17T08:15:14;100435.03;;;9.84;93.40
66681;BME280;53575;51.366;12.350;2023-02-17T08:17:39;100433.28;;;9.86;92.89
66681;BME280;53575;51.366;12.350;2023-02-17T08:20:06;100437.63;;;9.93;93.34
66681;BME280;53575;51.366;12.350;2023-02-17T08:22:31;100426.34;;;9.96;92.99
66681;BME280;53575;51.366;12.350;2023-02-17T08:24:57;100420.22;;;9.98;93.01
66681;BME280;53575;51.366;12.350;2023-02-17T08:27:22;100424.56;;;9.98;93.46
66681;BME280;53575;51.366;12.350;2023-02-17T08:29:48;100427.16;;;9.99;93.36
66681;BME280;53575;51.366;12.350;2023-02-17T08:32:15;100410.66;;;9.96;93.13
66681;BME280;53575;51.366;12.350;2023-02-17T08:34:41;100421.94;;;10.06;93.05
66681;BME280;53575;51.366;12.350;2023-02-17T08:37:07;100413.22;;;10.10;92.38
66681;BME280;53575;51.366;12.350;2023-02-17T08:39:34;100416.72;;;10.12;92.67
66681;BME280;53575;51.366;12.350;2023-02-17T08:42:00;100419.31;;;10.25;92.11
66681;BME280;53575;51.366;12.350;2023-02-17T08:44:26;100412.31;;;10.37;91.31
66681;BME280;53575;51.366;12.350;2023-02-17T08:46:51;100401.91;;;10.31;91.14
66681;BME280;53575;51.366;12.350;2023-02-17T08:49:20;100404.50;;;10.29;90.97
66681;BME280;53575;51.366;12.350;2023-02-17T08:51:46;100407.97;;;10.34;90.98
66681;BME280;53575;51.366;12.350;2023-02-17T08:54:12;100409.72;;;10.32;90.88
66681;BME280;53575;51.366;12.350;2023-02-17T08:56:39;100404.50;;;10.28;90.81
66681;BME280;53575;51.366;12.350;2023-02-17T08:59:06;100389.66;;;10.37;90.37
66681;BME280;53575;51.366;12.350;2023-02-17T09:01:33;100385.31;;;10.30;90.36
66681;BME280;53575;51.366;12.350;2023-02-17T09:04:01;100378.34;;;10.38;90.86
66681;BME280;53575;51.366;12.350;2023-02-17T09:06:35;100379.22;;;10.37;91.09
66681;BME280;53575;51.366;12.350;2023-02-17T09:09:03;100384.47;;;10.33;91.37
66681;BME280;53575;51.366;12.350;2023-02-17T09:11:29;100377.50;;;10.29;91.83
66681;BME280;53575;51.366;12.350;2023-02-17T09:13:54;100396.66;;;10.31;92.13
66681;BME280;53575;51.366;12.350;2023-02-17T09:16:20;100387.06;;;10.36;91.76
66681;BME280;53575;51.366;12.350;2023-02-17T09:18:48;100391.41;;;10.35;91.91
66681;BME280;53575;51.366;12.350;2023-02-17T09:21:14;100391.41;;;10.35;91.46
66681;BME280;53575;51.366;12.350;2023-02-17T09:23:39;100390.56;;;10.35;91.79
66681;BME280;53575;51.366;12.350;2023-02-17T09:26:09;100394.03;;;10.38;91.79
66681;BME280;53575;51.366;12.350;2023-02-17T09:28:34;100384.47;;;10.33;91.29
66681;BME280;53575;51.366;12.350;2023-02-17T09:31:14;100384.44;;;10.39;90.96
66681;BME280;53575;51.366;12.350;2023-02-17T09:33:41;100360.00;;;10.49;91.03
66681;BME280;53575;51.366;12.350;2023-02-17T09:36:09;100361.69;;;10.59;90.61
66681;BME280;53575;51.366;12.350;2023-02-17T09:38:37;100351.22;;;10.64;90.63
66681;BME280;53575;51.366;12.350;2023-02-17T09:41:13;100349.41;;;10.73;90.03
66681;BME280;53575;51.366;12.350;2023-02-17T09:43:40;100346.75;;;10.80;89.87
66681;BME280;53575;51.366;12.350;2023-02-17T09:46:10;100335.44;;;10.79;89.25
66681;BME280;53575;51.366;12.350;2023-02-17T09:48:37;100325.84;;;10.78;89.56
66681;BME280;53575;51.366;12.350;2023-02-17T09:51:11;100335.44;;;10.84;88.91
66681;BME280;53575;51.366;12.350;2023-02-17T09:53:50;100338.91;;;10.80;88.33
66681;BME280;53575;51.366;12.350;2023-02-17T09:56:23;100336.28;;;10.80;88.25
66681;BME280;53575;51.366;12.350;2023-02-17T09:58:53;100330.19;;;10.79;87.85
66681;BME280;53575;51.366;12.350;2023-02-17T10:01:24;100333.69;;;10.80;88.13
66681;BME280;53575;51.366;12.350;2023-02-17T10:06:45;100349.41;;;10.75;88.19
66681;BME280;53575;51.366;12.350;2023-02-17T10:09:36;100347.66;;;10.77;88.50
66681;BME280;53575;51.366;12.350;2023-02-17T10:12:13;100336.31;;;10.75;89.12
66681;BME280;53575;51.366;12.350;2023-02-17T10:14:58;100328.50;;;10.72;89.46
66681;BME280;53575;51.366;12.350;2023-02-17T10:20:04;100313.72;;;10.68;89.97
66681;BME280;53575;51.366;12.350;2023-02-17T10:22:32;100316.34;;;10.72;90.62
66681;BME280;53575;51.366;12.350;2023-02-17T10:24:59;100319.84;;;10.67;91.17
66681;BME280;53575;51.366;12.350;2023-02-17T10:27:42;100305.06;;;10.60;92.25
66681;BME280;53575;51.366;12.350;2023-02-17T10:30:38;100304.19;;;10.59;92.39
66681;BME280;53575;51.366;12.350;2023-02-17T10:36:10;100284.84;;;10.83;89.95
66681;BME280;53575;51.366;12.350;2023-02-17T10:38:52;100303.13;;;10.86;89.46
66681;BME280;53575;51.366;12.350;2023-02-17T10:41:36;100284.72;;;10.98;88.55
66681;BME280;53575;51.366;12.350;2023-02-17T10:44:08;100298.66;;;11.02;87.54
66681;BME280;53575;51.366;12.350;2023-02-17T10:46:39;100300.34;;;11.09;87.65
66681;BME280;53575;51.366;12.350;2023-02-17T10:49:19;100281.09;;;11.16;87.09
66681;BME280;53575;51.366;12.350;2023-02-17T10:51:46;100268.94;;;11.12;86.89
66681;BME280;53575;51.366;12.350;2023-02-17T10:56:54;100284.44;;;11.34;86.54
66681;BME280;53575;51.366;12.350;2023-02-17T10:59:30;100280.03;;;11.39;86.33
66681;BME280;53575;51.366;12.350;2023-02-17T11:02:24;100267.75;;;11.45;85.76
66681;BME280;53575;51.366;12.350;2023-02-17T11:04:52;100265.09;;;11.50;85.67
66681;BME280;53575;51.366;12.350;2023-02-17T11:07:39;100251.97;;;11.53;85.58
66681;BME280;53575;51.366;12.350;2023-02-17T11:10:21;100245.84;;;11.54;85.74
66681;BME280;53575;51.366;12.350;2023-02-17T11:12:48;100242.34;;;11.52;85.60
66681;BME280;53575;51.366;12.350;2023-02-17T11:15:19;100237.97;;;11.56;85.55
66681;BME280;53575;51.366;12.350;2023-02-17T11:17:46;100238.84;;;11.56;86.00
66681;BME280;53575;51.366;12.350;2023-02-17T11:25:21;100236.22;;;11.55;86.34
66681;BME280;53575;51.366;12.350;2023-02-17T11:27:54;100241.50;;;11.52;86.80
66681;BME280;53575;51.366;12.350;2023-02-17T11:30:21;100228.38;;;11.55;86.92
66681;BME280;53575;51.366;12.350;2023-02-17T11:32:47;100236.25;;;11.56;86.85
66681;BME280;53575;51.366;12.350;2023-02-17T11:35:52;100217.84;;;11.59;87.10
66681;BME280;53575;51.366;12.350;2023-02-17T11:38:24;100237.88;;;11.63;87.07
66681;BME280;53575;51.366;12.350;2023-02-17T11:43:20;100199.34;;;11.76;87.05
66681;BME280;53575;51.366;12.350;2023-02-17T11:46:10;100199.22;;;11.88;86.84
66681;BME280;53575;51.366;12.350;2023-02-17T11:57:38;100174.19;;;12.28;85.74
66681;BME280;53575;51.366;12.350;2023-02-17T12:00:20;100154.13;;;12.27;85.68
66681;BME280;53575;51.366;12.350;2023-02-17T12:19:59;100140.03;;;12.34;86.86
66681;BME280;53575;51.366;12.350;2023-02-17T12:23:36;100125.09;;;12.39;86.53
66681;BME280;53575;51.366;12.350;2023-02-17T12:26:20;100132.91;;;12.42;86.45
66681;BME280;53575;51.366;12.350;2023-02-17T12:31:24;100147.00;;;12.35;86.86
66681;BME280;53575;51.366;12.350;2023-02-17T12:34:17;100131.44;;;12.26;88.02
66681;BME280;53575;51.366;12.350;2023-02-17T12:36:46;100136.56;;;12.33;87.61
66681;BME280;53575;51.366;12.350;2023-02-17T12:39:21;100128.66;;;12.35;88.06
66681;BME280;53575;51.366;12.350;2023-02-17T12:44:39;100132.16;;;12.35;87.33
66681;BME280;53575;51.366;12.350;2023-02-17T12:47:26;100134.81;;;12.32;87.67
66681;BME280;53575;51.366;12.350;2023-02-17T12:50:13;100134.84;;;12.31;87.68
66681;BME280;53575;51.366;12.350;2023-02-17T12:52:43;100132.28;;;12.28;88.24
66681;BME280;53575;51.366;12.350;2023-02-17T12:55:17;100117.44;;;12.27;87.81
66681;BME280;53575;51.366;12.350;2023-02-17T12:57:50;100119.22;;;12.25;88.06
66681;BME280;53575;51.366;12.350;2023-02-17T13:00:26;100089.63;;;12.21;88.48
66681;BME280;53575;51.366;12.350;2023-02-17T13:02:57;100084.28;;;12.26;88.24
66681;BME280;53575;51.366;12.350;2023-02-17T13:05:39;100092.88;;;12.32;88.04
66681;BME280;53575;51.366;12.350;2023-02-17T13:08:14;100098.91;;;12.40;87.84
66681;BME280;53575;51.366;12.350;2023-02-17T13:10:41;100109.47;;;12.34;87.86
66681;BME280;53575;51.366;12.350;2023-02-17T13:13:12;100086.78;;;12.33;88.02
66681;BME280;53575;51.366;12.350;2023-02-17T13:15:45;100092.03;;;12.33;87.84
66681;BME280;53575;51.366;12.350;2023-02-17T13:18:12;100080.72;;;12.30;88.22
66681;BME280;53575;51.366;12.350;2023-02-17T13:20:51;100080.78;;;12.27;88.40
66681;BME280;53575;51.366;12.350;2023-02-17T13:28:37;100064.19;;;12.26;88.28
66681;BME280;53575;51.366;12.350;2023-02-17T13:31:18;100075.50;;;12.28;88.23
66681;BME280;53575;51.366;12.350;2023-02-17T13:33:56;100057.97;;;12.32;87.78
66681;BME280;53575;51.366;12.350;2023-02-17T13:39:00;100081.50;;;12.36;87.19
66681;BME280;53575;51.366;12.350;2023-02-17T13:41:43;100037.78;;;12.38;87.51
66681;BME280;53575;51.366;12.350;2023-02-17T13:44:30;100043.72;;;12.48;86.40
66681;BME280;53575;51.366;12.350;2023-02-17T13:47:05;100040.16;;;12.51;86.51
66681;BME280;53575;51.366;12.350;2023-02-17T13:49:32;100019.09;;;12.55;86.50
66681;BME280;53575;51.366;12.350;2023-02-17T13:52:23;100025.09;;;12.62;86.14
66681;BME280;53575;51.366;12.350;2023-02-17T13:54:55;100039.81;;;12.69;85.82
66681;BME280;53575;51.366;12.350;2023-02-17T13:57:32;100078.09;;;12.79;85.14
66681;BME280;53575;51.366;12.350;2023-02-17T14:02:36;100054.50;;;12.79;84.89
66681;BME280;53575;51.366;12.350;2023-02-17T14:08:09;100038.50;;;12.91;84.75
66681;BME280;53575;51.366;12.350;2023-02-17T14:10:36;100044.50;;;12.98;84.39
66681;BME280;53575;51.366;12.350;2023-02-17T14:13:02;100037.50;;;12.97;84.14